Disney Magic — C6PT7 — position and weather

sailwx.info

Track history (hours):
 
Tides and Currents Weather Stations Pressure Air Temp Water Temp Dewpoint Dewpoint Depression Visibility Wind Speed Wind Dir Waves Ship Positions

Disney Magic

Last reported at 2017-Dec-17 06:02 UTC. Time now 2017-Dec-17 14:25 UTC.
Position N 25°58' W 079°21'.

Type: Passenger vessel. MMSI: 308516000.

Date/timePositionNaut miles runAvg speedWind from/ knotsBaromVisibWave heightAir tempDewpointWater temp
2017-Dec-17 06:02N 25°58' W 079°21'120.2
2017-Dec-17 05:58N 25°57' W 079°21'920.0
2017-Dec-17 05:30N 25°49' W 079°26'1020.3
2017-Dec-17 05:00N 25°41' W 079°34'1121.6
2017-Dec-17 04:31N 25°32' W 079°40'1223.1
2017-Dec-17 04:00N 25°22' W 079°46'16 0.6
2017-Dec-16 01:19N 25°11' W 079°60'515.3
2017-Dec-16 01:00N 25°16' W 079°59'815.2
2017-Dec-16 00:30N 25°23' W 079°59'815.1
2017-Dec-16 00:00N 25°31' W 079°58'714.9
2017-Dec-15 23:30N 25°38' W 079°58'715.0
2017-Dec-15 23:00N 25°45' W 080°02'5 9.7
2017-Dec-15 22:31N 25°46' W 080°07'3 6.1
2017-Dec-15 21:59N 25°47' W 080°10'0 0.0
2017-Dec-15 21:29N 25°47' W 080°10'0 0.0
2017-Dec-15 20:59N 25°47' W 080°10'0 0.0
2017-Dec-15 20:29N 25°47' W 080°10'0 0.0
2017-Dec-15 19:56N 25°47' W 080°10'0 0.0
2017-Dec-15 19:26N 25°47' W 080°10'0 0.0
2017-Dec-15 18:56N 25°47' W 080°10'0 0.0
2017-Dec-15 18:26N 25°47' W 080°10'0 0.0
2017-Dec-15 17:59N 25°47' W 080°10'0 0.0
2017-Dec-15 17:29N 25°47' W 080°10'0 0.0
2017-Dec-15 16:56N 25°47' W 080°10'0 0.0
2017-Dec-15 16:29N 25°47' W 080°10'0 0.0
2017-Dec-15 15:59N 25°47' W 080°10'0 0.0
2017-Dec-15 15:29N 25°47' W 080°10'0 0.0
2017-Dec-15 14:59N 25°47' W 080°10'0 0.0
2017-Dec-15 14:29N 25°47' W 080°10'0 0.0
2017-Dec-15 13:59N 25°47' W 080°10'0 0.0
2017-Dec-15 13:29N 25°47' W 080°10'0 0.0
2017-Dec-15 12:59N 25°47' W 080°10'0 0.0
2017-Dec-15 12:29N 25°47' W 080°10'0 0.0
2017-Dec-15 11:59N 25°47' W 080°10'0 0.0
2017-Dec-15 11:29N 25°47' W 080°10'0 0.0
2017-Dec-15 10:59N 25°47' W 080°10'0 0.0
2017-Dec-15 10:29N 25°47' W 080°10'0 1.0
2017-Dec-15 10:01N 25°47' W 080°11'2 4.3
2017-Dec-15 09:30N 25°46' W 080°09'611.3
2017-Dec-15 09:01N 25°47' W 080°03'5 9.7
2017-Dec-15 08:30N 25°49' W 079°58'510.7
2017-Dec-15 08:00N 25°52' W 079°53'713.1
2017-Dec-15 07:30N 25°55' W 079°47'816.7
2017-Dec-15 07:00N 25°59' W 079°38'817.0
2017-Dec-15 06:30N 26°04' W 079°30'917.5
2017-Dec-15 06:00N 26°08' W 079°22'12 0.5
2017-Dec-14 06:07N 25°56' W 079°23'419.4
2017-Dec-14 05:54N 25°52' W 079°24'819.4
2017-Dec-14 05:30N 25°44' W 079°27'919.1
2017-Dec-14 05:00N 25°35' W 079°30'50616.9
2017-Dec-12 22:59N 20°38' W 086°55'713.9
2017-Dec-12 22:30N 20°32' W 086°58'1 1.8
2017-Dec-12 21:55N 20°31' W 086°57'0 0.0
2017-Dec-12 21:28N 20°31' W 086°57'0 0.0
2017-Dec-12 20:55N 20°31' W 086°57'0 0.0
2017-Dec-12 20:28N 20°31' W 086°57'0 0.0
2017-Dec-12 19:55N 20°31' W 086°57'0 0.0
2017-Dec-12 19:28N 20°31' W 086°57'0 0.0
2017-Dec-12 18:49N 20°31' W 086°57'0 0.0
2017-Dec-12 18:28N 20°31' W 086°57'0 0.0
2017-Dec-12 17:58N 20°31' W 086°57'0 0.0
2017-Dec-12 17:19N 20°31' W 086°57'0 0.0
2017-Dec-12 16:58N 20°31' W 086°57'0 0.0
2017-Dec-12 16:28N 20°31' W 086°57'0 0.0
2017-Dec-12 15:58N 20°31' W 086°57'0 0.0
2017-Dec-12 15:28N 20°31' W 086°57'0 0.0
2017-Dec-12 14:58N 20°31' W 086°57'0 0.0
2017-Dec-12 14:28N 20°31' W 086°57'0 0.0
2017-Dec-12 13:58N 20°31' W 086°57'0 0.0
2017-Dec-12 13:28N 20°31' W 086°57'0 0.0
2017-Dec-12 12:58N 20°31' W 086°57'0 0.0
2017-Dec-12 12:19N 20°31' W 086°57'0 0.0
2017-Dec-12 12:00N 20°31' W 086°57'2 4.5
2017-Dec-12 11:31N 20°33' W 086°57'712.8
2017-Dec-12 11:00N 20°38' W 086°53'48714.2
2017-Dec-11 00:50N 25°25' W 079°46'516.3
2017-Dec-11 00:30N 25°30' W 079°49'815.8
2017-Dec-11 00:01N 25°37' W 079°52'815.6
2017-Dec-10 23:31N 25°43' W 079°58'713.5
2017-Dec-10 23:00N 25°46' W 080°05'4 8.9
2017-Dec-10 22:31N 25°47' W 080°10'0 0.9
2017-Dec-10 21:59N 25°47' W 080°10'0 0.0
2017-Dec-10 21:29N 25°47' W 080°10'0 0.0
2017-Dec-10 20:59N 25°47' W 080°10'0 0.0
2017-Dec-10 20:29N 25°47' W 080°10'0 0.0
2017-Dec-10 19:56N 25°47' W 080°10'0 0.0
2017-Dec-10 19:29N 25°47' W 080°10'0 0.0
2017-Dec-10 18:59N 25°47' W 080°10'0 0.0
2017-Dec-10 18:29N 25°47' W 080°10'0 0.0
2017-Dec-10 17:59N 25°47' W 080°10'0 0.0
2017-Dec-10 17:29N 25°47' W 080°10'0 0.0
2017-Dec-10 16:59N 25°47' W 080°10'0 0.0
2017-Dec-10 16:29N 25°47' W 080°10'0 0.0
2017-Dec-10 15:59N 25°47' W 080°10'0 0.0
2017-Dec-10 15:29N 25°47' W 080°10'0 0.0
2017-Dec-10 14:59N 25°47' W 080°10'0 0.0
2017-Dec-10 14:29N 25°47' W 080°10'0 0.0
2017-Dec-10 13:53N 25°47' W 080°10'0 0.0
2017-Dec-10 13:29N 25°47' W 080°10'0 0.0
2017-Dec-10 12:53N 25°47' W 080°10'0 0.0
2017-Dec-10 12:29N 25°47' W 080°10'0 0.0
2017-Dec-10 11:59N 25°47' W 080°10'0 0.9
2017-Dec-10 11:31N 25°47' W 080°11'2 4.8
2017-Dec-10 11:00N 25°46' W 080°08'611.6
2017-Dec-10 10:30N 25°46' W 080°02'612.2
2017-Dec-10 10:00N 25°50' W 079°56'713.4
2017-Dec-10 09:31N 25°53' W 079°50'714.2
2017-Dec-10 09:00N 25°57' W 079°43'815.3
2017-Dec-10 08:30N 26°01' W 079°36'815.9
2017-Dec-10 08:00N 26°05' W 079°28'816.6
2017-Dec-10 07:30N 26°09' W 079°20'15 0.3
2017-Dec-08 05:52N 25°54' W 079°25'823.0
2017-Dec-08 05:30N 25°47' W 079°30'1223.2
2017-Dec-08 05:01N 25°37' W 079°36'1223.6
2017-Dec-08 04:30N 25°27' W 079°43'1223.8
2017-Dec-08 04:00N 25°17' W 079°50'  
Track history (hours):
 
Tides and Currents Weather Stations Pressure Air Temp Water Temp Dewpoint Dewpoint Depression Visibility Wind Speed Wind Dir Waves Ship Positions

Disney Magic

Last reported at 2017-Dec-17 06:02 UTC. Time now 2017-Dec-17 14:25 UTC.
Position N 25°58' W 079°21'.

Type: Passenger vessel. MMSI: 308516000.

Date/timePositionNaut miles runAvg speedWind from/ knotsBaromVisibWave heightAir tempDewpointWater temp
2017-Dec-17 06:02N 25°58' W 079°21'120.2
2017-Dec-17 05:58N 25°57' W 079°21'920.0
2017-Dec-17 05:30N 25°49' W 079°26'1020.3
2017-Dec-17 05:00N 25°41' W 079°34'1121.6
2017-Dec-17 04:31N 25°32' W 079°40'1223.1
2017-Dec-17 04:00N 25°22' W 079°46'16 0.6
2017-Dec-16 01:19N 25°11' W 079°60'515.3
2017-Dec-16 01:00N 25°16' W 079°59'815.2
2017-Dec-16 00:30N 25°23' W 079°59'815.1
2017-Dec-16 00:00N 25°31' W 079°58'714.9
2017-Dec-15 23:30N 25°38' W 079°58'715.0
2017-Dec-15 23:00N 25°45' W 080°02'5 9.7
2017-Dec-15 22:31N 25°46' W 080°07'3 6.1
2017-Dec-15 21:59N 25°47' W 080°10'0 0.0
2017-Dec-15 21:29N 25°47' W 080°10'0 0.0
2017-Dec-15 20:59N 25°47' W 080°10'0 0.0
2017-Dec-15 20:29N 25°47' W 080°10'0 0.0
2017-Dec-15 19:56N 25°47' W 080°10'0 0.0
2017-Dec-15 19:26N 25°47' W 080°10'0 0.0
2017-Dec-15 18:56N 25°47' W 080°10'0 0.0
2017-Dec-15 18:26N 25°47' W 080°10'0 0.0
2017-Dec-15 17:59N 25°47' W 080°10'0 0.0
2017-Dec-15 17:29N 25°47' W 080°10'0 0.0
2017-Dec-15 16:56N 25°47' W 080°10'0 0.0
2017-Dec-15 16:29N 25°47' W 080°10'0 0.0
2017-Dec-15 15:59N 25°47' W 080°10'0 0.0
2017-Dec-15 15:29N 25°47' W 080°10'0 0.0
2017-Dec-15 14:59N 25°47' W 080°10'0 0.0
2017-Dec-15 14:29N 25°47' W 080°10'0 0.0
2017-Dec-15 13:59N 25°47' W 080°10'0 0.0
2017-Dec-15 13:29N 25°47' W 080°10'0 0.0
2017-Dec-15 12:59N 25°47' W 080°10'0 0.0
2017-Dec-15 12:29N 25°47' W 080°10'0 0.0
2017-Dec-15 11:59N 25°47' W 080°10'0 0.0
2017-Dec-15 11:29N 25°47' W 080°10'0 0.0
2017-Dec-15 10:59N 25°47' W 080°10'0 0.0
2017-Dec-15 10:29N 25°47' W 080°10'0 1.0
2017-Dec-15 10:01N 25°47' W 080°11'2 4.3
2017-Dec-15 09:30N 25°46' W 080°09'611.3
2017-Dec-15 09:01N 25°47' W 080°03'5 9.7
2017-Dec-15 08:30N 25°49' W 079°58'510.7
2017-Dec-15 08:00N 25°52' W 079°53'713.1
2017-Dec-15 07:30N 25°55' W 079°47'816.7
2017-Dec-15 07:00N 25°59' W 079°38'817.0
2017-Dec-15 06:30N 26°04' W 079°30'917.5
2017-Dec-15 06:00N 26°08' W 079°22'12 0.5
2017-Dec-14 06:07N 25°56' W 079°23'419.4
2017-Dec-14 05:54N 25°52' W 079°24'819.4
2017-Dec-14 05:30N 25°44' W 079°27'919.1
2017-Dec-14 05:00N 25°35' W 079°30'50616.9
2017-Dec-12 22:59N 20°38' W 086°55'713.9
2017-Dec-12 22:30N 20°32' W 086°58'1 1.8
2017-Dec-12 21:55N 20°31' W 086°57'0 0.0
2017-Dec-12 21:28N 20°31' W 086°57'0 0.0
2017-Dec-12 20:55N 20°31' W 086°57'0 0.0
2017-Dec-12 20:28N 20°31' W 086°57'0 0.0
2017-Dec-12 19:55N 20°31' W 086°57'0 0.0
2017-Dec-12 19:28N 20°31' W 086°57'0 0.0
2017-Dec-12 18:49N 20°31' W 086°57'0 0.0
2017-Dec-12 18:28N 20°31' W 086°57'0 0.0
2017-Dec-12 17:58N 20°31' W 086°57'0 0.0
2017-Dec-12 17:19N 20°31' W 086°57'0 0.0
2017-Dec-12 16:58N 20°31' W 086°57'0 0.0
2017-Dec-12 16:28N 20°31' W 086°57'0 0.0
2017-Dec-12 15:58N 20°31' W 086°57'0 0.0
2017-Dec-12 15:28N 20°31' W 086°57'0 0.0
2017-Dec-12 14:58N 20°31' W 086°57'0 0.0
2017-Dec-12 14:28N 20°31' W 086°57'0 0.0
2017-Dec-12 13:58N 20°31' W 086°57'0 0.0
2017-Dec-12 13:28N 20°31' W 086°57'0 0.0
2017-Dec-12 12:58N 20°31' W 086°57'0 0.0
2017-Dec-12 12:19N 20°31' W 086°57'0 0.0
2017-Dec-12 12:00N 20°31' W 086°57'2 4.5
2017-Dec-12 11:31N 20°33' W 086°57'712.8
2017-Dec-12 11:00N 20°38' W 086°53'48714.2
2017-Dec-11 00:50N 25°25' W 079°46'516.3
2017-Dec-11 00:30N 25°30' W 079°49'815.8
2017-Dec-11 00:01N 25°37' W 079°52'815.6
2017-Dec-10 23:31N 25°43' W 079°58'713.5
2017-Dec-10 23:00N 25°46' W 080°05'4 8.9
2017-Dec-10 22:31N 25°47' W 080°10'0 0.9
2017-Dec-10 21:59N 25°47' W 080°10'0 0.0
2017-Dec-10 21:29N 25°47' W 080°10'0 0.0
2017-Dec-10 20:59N 25°47' W 080°10'0 0.0
2017-Dec-10 20:29N 25°47' W 080°10'0 0.0
2017-Dec-10 19:56N 25°47' W 080°10'0 0.0
2017-Dec-10 19:29N 25°47' W 080°10'0 0.0
2017-Dec-10 18:59N 25°47' W 080°10'0 0.0
2017-Dec-10 18:29N 25°47' W 080°10'0 0.0
2017-Dec-10 17:59N 25°47' W 080°10'0 0.0
2017-Dec-10 17:29N 25°47' W 080°10'0 0.0
2017-Dec-10 16:59N 25°47' W 080°10'0 0.0
2017-Dec-10 16:29N 25°47' W 080°10'0 0.0
2017-Dec-10 15:59N 25°47' W 080°10'0 0.0
2017-Dec-10 15:29N 25°47' W 080°10'0 0.0
2017-Dec-10 14:59N 25°47' W 080°10'0 0.0
2017-Dec-10 14:29N 25°47' W 080°10'0 0.0
2017-Dec-10 13:53N 25°47' W 080°10'0 0.0
2017-Dec-10 13:29N 25°47' W 080°10'0 0.0
2017-Dec-10 12:53N 25°47' W 080°10'0 0.0
2017-Dec-10 12:29N 25°47' W 080°10'0 0.0
2017-Dec-10 11:59N 25°47' W 080°10'0 0.9
2017-Dec-10 11:31N 25°47' W 080°11'2 4.8
2017-Dec-10 11:00N 25°46' W 080°08'611.6
2017-Dec-10 10:30N 25°46' W 080°02'612.2
2017-Dec-10 10:00N 25°50' W 079°56'713.4
2017-Dec-10 09:31N 25°53' W 079°50'714.2
2017-Dec-10 09:00N 25°57' W 079°43'815.3
2017-Dec-10 08:30N 26°01' W 079°36'815.9
2017-Dec-10 08:00N 26°05' W 079°28'816.6
2017-Dec-10 07:30N 26°09' W 079°20'15 0.3
2017-Dec-08 05:52N 25°54' W 079°25'823.0
2017-Dec-08 05:30N 25°47' W 079°30'1223.2
2017-Dec-08 05:01N 25°37' W 079°36'1223.6
2017-Dec-08 04:30N 25°27' W 079°43'1223.8
2017-Dec-08 04:00N 25°17' W 079°50'  

Dump ship's entire track history